sensor_id;sensor_type;location;lat;lon;timestamp;temperature;humidity
14142;DHT22;7151;52.246;4.820;2023-08-01T00:01:59;20.90;90.10
14142;DHT22;7151;52.246;4.820;2023-08-01T00:04:24;20.90;90.20
14142;DHT22;7151;52.246;4.820;2023-08-01T00:06:50;20.90;90.20
14142;DHT22;7151;52.246;4.820;2023-08-01T00:09:15;20.90;90.20
14142;DHT22;7151;52.246;4.820;2023-08-01T00:11:41;20.90;90.20
14142;DHT22;7151;52.246;4.820;2023-08-01T00:14:07;20.90;90.30
14142;DHT22;7151;52.246;4.820;2023-08-01T00:16:32;20.90;90.30
14142;DHT22;7151;52.246;4.820;2023-08-01T00:18:58;20.90;90.30
14142;DHT22;7151;52.246;4.820;2023-08-01T00:21:23;20.90;90.30
14142;DHT22;7151;52.246;4.820;2023-08-01T00:23:49;20.80;90.30
14142;DHT22;7151;52.246;4.820;2023-08-01T00:26:15;20.90;90.40
14142;DHT22;7151;52.246;4.820;2023-08-01T00:28:40;20.80;90.40
14142;DHT22;7151;52.246;4.820;2023-08-01T00:31:07;20.80;90.40
14142;DHT22;7151;52.246;4.820;2023-08-01T00:33:36;20.80;90.50
14142;DHT22;7151;52.246;4.820;2023-08-01T00:36:02;20.80;90.40
14142;DHT22;7151;52.246;4.820;2023-08-01T00:38:28;20.80;90.40
14142;DHT22;7151;52.246;4.820;2023-08-01T00:40:54;20.90;90.50
14142;DHT22;7151;52.246;4.820;2023-08-01T00:43:20;20.80;90.40
14142;DHT22;7151;52.246;4.820;2023-08-01T00:45:45;20.90;90.50
14142;DHT22;7151;52.246;4.820;2023-08-01T00:48:12;20.80;90.50
14142;DHT22;7151;52.246;4.820;2023-08-01T00:50:39;20.80;90.50
14142;DHT22;7151;52.246;4.820;2023-08-01T00:53:04;20.80;90.50
14142;DHT22;7151;52.246;4.820;2023-08-01T00:55:32;20.80;90.50
14142;DHT22;7151;52.246;4.820;2023-08-01T00:57:58;20.80;90.50
14142;DHT22;7151;52.246;4.820;2023-08-01T01:00:23;20.80;90.40
14142;DHT22;7151;52.246;4.820;2023-08-01T01:02:49;20.80;90.40
14142;DHT22;7151;52.246;4.820;2023-08-01T01:05:15;20.80;90.40
14142;DHT22;7151;52.246;4.820;2023-08-01T01:07:41;20.80;90.40
14142;DHT22;7151;52.246;4.820;2023-08-01T01:10:07;20.80;90.40
14142;DHT22;7151;52.246;4.820;2023-08-01T01:12:32;20.80;90.40
14142;DHT22;7151;52.246;4.820;2023-08-01T01:14:58;20.80;90.40
14142;DHT22;7151;52.246;4.820;2023-08-01T01:17:23;20.80;90.50
14142;DHT22;7151;52.246;4.820;2023-08-01T01:19:49;20.80;90.50
14142;DHT22;7151;52.246;4.820;2023-08-01T01:22:15;20.80;90.50
14142;DHT22;7151;52.246;4.820;2023-08-01T01:24:42;20.80;90.50
14142;DHT22;7151;52.246;4.820;2023-08-01T01:27:08;20.80;90.40
14142;DHT22;7151;52.246;4.820;2023-08-01T01:29:35;20.80;90.40
14142;DHT22;7151;52.246;4.820;2023-08-01T01:32:01;20.80;90.40
14142;DHT22;7151;52.246;4.820;2023-08-01T01:34:28;20.80;90.40
14142;DHT22;7151;52.246;4.820;2023-08-01T01:36:53;20.80;90.40
14142;DHT22;7151;52.246;4.820;2023-08-01T01:39:19;20.80;90.40
14142;DHT22;7151;52.246;4.820;2023-08-01T01:41:45;20.80;90.40
14142;DHT22;7151;52.246;4.820;2023-08-01T01:44:11;20.80;90.40
14142;DHT22;7151;52.246;4.820;2023-08-01T01:46:37;20.80;90.40
14142;DHT22;7151;52.246;4.820;2023-08-01T01:49:02;20.80;90.50
14142;DHT22;7151;52.246;4.820;2023-08-01T01:51:28;20.80;90.50
14142;DHT22;7151;52.246;4.820;2023-08-01T01:53:54;20.80;90.50
14142;DHT22;7151;52.246;4.820;2023-08-01T01:56:19;20.80;90.50
14142;DHT22;7151;52.246;4.820;2023-08-01T01:58:45;20.80;90.40
14142;DHT22;7151;52.246;4.820;2023-08-01T02:01:10;20.80;90.40
14142;DHT22;7151;52.246;4.820;2023-08-01T02:03:36;20.80;90.40
14142;DHT22;7151;52.246;4.820;2023-08-01T02:06:03;20.80;90.30
14142;DHT22;7151;52.246;4.820;2023-08-01T02:08:29;20.80;90.30
14142;DHT22;7151;52.246;4.820;2023-08-01T02:10:54;20.80;90.20
14142;DHT22;7151;52.246;4.820;2023-08-01T02:13:24;20.80;90.20
14142;DHT22;7151;52.246;4.820;2023-08-01T02:15:49;20.80;90.10
14142;DHT22;7151;52.246;4.820;2023-08-01T02:18:15;20.90;90.10
14142;DHT22;7151;52.246;4.820;2023-08-01T02:20:40;20.80;90.10
14142;DHT22;7151;52.246;4.820;2023-08-01T02:23:06;20.80;90.10
14142;DHT22;7151;52.246;4.820;2023-08-01T02:25:32;20.80;90.10
14142;DHT22;7151;52.246;4.820;2023-08-01T02:27:57;20.80;90.10
14142;DHT22;7151;52.246;4.820;2023-08-01T02:30:23;20.80;90.20
14142;DHT22;7151;52.246;4.820;2023-08-01T02:32:48;20.80;90.30
14142;DHT22;7151;52.246;4.820;2023-08-01T02:35:14;20.70;90.30
14142;DHT22;7151;52.246;4.820;2023-08-01T02:37:39;20.70;90.30
14142;DHT22;7151;52.246;4.820;2023-08-01T02:40:07;20.70;90.40
14142;DHT22;7151;52.246;4.820;2023-08-01T02:42:33;20.70;90.40
14142;DHT22;7151;52.246;4.820;2023-08-01T02:44:59;20.70;90.50
14142;DHT22;7151;52.246;4.820;2023-08-01T02:47:24;20.70;90.50
14142;DHT22;7151;52.246;4.820;2023-08-01T02:49:50;20.70;90.60
14142;DHT22;7151;52.246;4.820;2023-08-01T02:52:15;20.70;90.60
14142;DHT22;7151;52.246;4.820;2023-08-01T02:54:41;20.60;90.60
14142;DHT22;7151;52.246;4.820;2023-08-01T02:57:06;20.60;90.90
14142;DHT22;7151;52.246;4.820;2023-08-01T02:59:32;20.60;90.70
14142;DHT22;7151;52.246;4.820;2023-08-01T03:01:58;20.60;90.70
14142;DHT22;7151;52.246;4.820;2023-08-01T03:04:24;20.60;90.70
14142;DHT22;7151;52.246;4.820;2023-08-01T03:06:50;20.60;90.70
14142;DHT22;7151;52.246;4.820;2023-08-01T03:09:15;20.60;90.80
14142;DHT22;7151;52.246;4.820;2023-08-01T03:11:41;20.60;90.80
14142;DHT22;7151;52.246;4.820;2023-08-01T03:14:07;20.60;90.90
14142;DHT22;7151;52.246;4.820;2023-08-01T03:16:33;20.60;90.90
14142;DHT22;7151;52.246;4.820;2023-08-01T03:18:58;20.60;90.90
14142;DHT22;7151;52.246;4.820;2023-08-01T03:21:32;20.60;91.00
14142;DHT22;7151;52.246;4.820;2023-08-01T03:23:58;20.60;91.00
14142;DHT22;7151;52.246;4.820;2023-08-01T03:26:24;20.60;91.00
14142;DHT22;7151;52.246;4.820;2023-08-01T03:28:49;20.60;91.00
14142;DHT22;7151;52.246;4.820;2023-08-01T03:31:15;20.60;91.00
14142;DHT22;7151;52.246;4.820;2023-08-01T03:33:41;20.60;91.00
14142;DHT22;7151;52.246;4.820;2023-08-01T03:36:06;20.60;91.00
14142;DHT22;7151;52.246;4.820;2023-08-01T03:38:32;20.60;91.00
14142;DHT22;7151;52.246;4.820;2023-08-01T03:40:58;20.60;91.00
14142;DHT22;7151;52.246;4.820;2023-08-01T03:43:23;20.60;91.00
14142;DHT22;7151;52.246;4.820;2023-08-01T03:45:49;20.60;91.00
14142;DHT22;7151;52.246;4.820;2023-08-01T03:48:15;20.60;91.00
14142;DHT22;7151;52.246;4.820;2023-08-01T03:50:41;20.60;91.00
14142;DHT22;7151;52.246;4.820;2023-08-01T03:53:06;20.70;91.00
14142;DHT22;7151;52.246;4.820;2023-08-01T03:55:32;20.70;91.00
14142;DHT22;7151;52.246;4.820;2023-08-01T03:57:58;20.60;91.00
14142;DHT22;7151;52.246;4.820;2023-08-01T04:00:24;20.60;91.00
14142;DHT22;7151;52.246;4.820;2023-08-01T04:02:49;20.60;91.00
14142;DHT22;7151;52.246;4.820;2023-08-01T04:05:15;20.60;91.00
14142;DHT22;7151;52.246;4.820;2023-08-01T04:07:41;20.60;90.90
14142;DHT22;7151;52.246;4.820;2023-08-01T04:10:07;20.60;90.90
14142;DHT22;7151;52.246;4.820;2023-08-01T04:12:33;20.60;90.90
14142;DHT22;7151;52.246;4.820;2023-08-01T04:15:00;20.60;90.90
14142;DHT22;7151;52.246;4.820;2023-08-01T04:17:26;20.60;90.90
14142;DHT22;7151;52.246;4.820;2023-08-01T04:19:52;20.60;90.90
14142;DHT22;7151;52.246;4.820;2023-08-01T04:22:18;20.60;90.90
14142;DHT22;7151;52.246;4.820;2023-08-01T04:24:43;20.60;90.90
14142;DHT22;7151;52.246;4.820;2023-08-01T04:27:09;20.60;90.90
14142;DHT22;7151;52.246;4.820;2023-08-01T04:29:35;20.60;90.90
14142;DHT22;7151;52.246;4.820;2023-08-01T04:32:00;20.60;90.90
14142;DHT22;7151;52.246;4.820;2023-08-01T04:34:26;20.60;90.90
14142;DHT22;7151;52.246;4.820;2023-08-01T04:36:51;20.60;91.00
14142;DHT22;7151;52.246;4.820;2023-08-01T04:39:17;20.60;91.00
14142;DHT22;7151;52.246;4.820;2023-08-01T04:41:43;20.60;91.30
14142;DHT22;7151;52.246;4.820;2023-08-01T04:44:08;20.60;91.00
14142;DHT22;7151;52.246;4.820;2023-08-01T04:46:34;20.60;91.10
14142;DHT22;7151;52.246;4.820;2023-08-01T04:48:59;20.50;91.00
14142;DHT22;7151;52.246;4.820;2023-08-01T04:51:25;20.50;91.00
14142;DHT22;7151;52.246;4.820;2023-08-01T04:53:51;20.50;91.10
14142;DHT22;7151;52.246;4.820;2023-08-01T04:56:16;20.60;91.10
14142;DHT22;7151;52.246;4.820;2023-08-01T04:58:42;20.50;91.10
14142;DHT22;7151;52.246;4.820;2023-08-01T05:01:08;20.50;91.10
14142;DHT22;7151;52.246;4.820;2023-08-01T05:03:33;20.50;91.10
14142;DHT22;7151;52.246;4.820;2023-08-01T05:05:59;20.50;91.10
14142;DHT22;7151;52.246;4.820;2023-08-01T05:08:25;20.50;91.10
14142;DHT22;7151;52.246;4.820;2023-08-01T05:10:50;20.50;91.10
14142;DHT22;7151;52.246;4.820;2023-08-01T05:13:16;20.50;91.10
14142;DHT22;7151;52.246;4.820;2023-08-01T05:15:44;20.50;91.10
14142;DHT22;7151;52.246;4.820;2023-08-01T05:18:10;20.50;91.00
14142;DHT22;7151;52.246;4.820;2023-08-01T05:20:36;20.50;91.00
14142;DHT22;7151;52.246;4.820;2023-08-01T05:23:02;20.50;91.00
14142;DHT22;7151;52.246;4.820;2023-08-01T05:25:27;20.50;91.00
14142;DHT22;7151;52.246;4.820;2023-08-01T05:27:53;20.50;91.00
14142;DHT22;7151;52.246;4.820;2023-08-01T05:30:19;20.40;90.90
14142;DHT22;7151;52.246;4.820;2023-08-01T05:32:44;20.40;90.90
14142;DHT22;7151;52.246;4.820;2023-08-01T05:35:11;20.40;90.90
14142;DHT22;7151;52.246;4.820;2023-08-01T05:37:36;20.40;90.90
14142;DHT22;7151;52.246;4.820;2023-08-01T05:40:03;20.40;90.90
14142;DHT22;7151;52.246;4.820;2023-08-01T05:42:29;20.40;90.90
14142;DHT22;7151;52.246;4.820;2023-08-01T05:44:54;20.40;90.90
14142;DHT22;7151;52.246;4.820;2023-08-01T05:47:20;20.40;90.90
14142;DHT22;7151;52.246;4.820;2023-08-01T05:49:49;20.40;90.90
14142;DHT22;7151;52.246;4.820;2023-08-01T05:52:14;20.40;90.90
14142;DHT22;7151;52.246;4.820;2023-08-01T05:54:40;20.40;90.90
14142;DHT22;7151;52.246;4.820;2023-08-01T05:57:06;20.40;90.90
14142;DHT22;7151;52.246;4.820;2023-08-01T05:59:31;20.40;90.90
14142;DHT22;7151;52.246;4.820;2023-08-01T06:01:57;20.40;90.90
14142;DHT22;7151;52.246;4.820;2023-08-01T06:04:22;20.40;90.80
14142;DHT22;7151;52.246;4.820;2023-08-01T06:06:48;20.40;90.80
14142;DHT22;7151;52.246;4.820;2023-08-01T06:09:14;20.40;90.80
14142;DHT22;7151;52.246;4.820;2023-08-01T06:11:39;20.40;90.80
14142;DHT22;7151;52.246;4.820;2023-08-01T06:14:05;20.40;90.80
14142;DHT22;7151;52.246;4.820;2023-08-01T06:16:30;20.40;90.80
14142;DHT22;7151;52.246;4.820;2023-08-01T06:18:56;20.40;90.80
14142;DHT22;7151;52.246;4.820;2023-08-01T06:21:22;20.50;90.90
14142;DHT22;7151;52.246;4.820;2023-08-01T06:23:48;20.50;90.80
14142;DHT22;7151;52.246;4.820;2023-08-01T06:26:13;20.50;90.80
14142;DHT22;7151;52.246;4.820;2023-08-01T06:28:41;20.50;90.80
14142;DHT22;7151;52.246;4.820;2023-08-01T06:31:06;20.50;90.70
14142;DHT22;7151;52.246;4.820;2023-08-01T06:33:32;20.50;90.80
14142;DHT22;7151;52.246;4.820;2023-08-01T06:35:58;20.60;90.80
14142;DHT22;7151;52.246;4.820;2023-08-01T06:38:23;20.60;90.80
14142;DHT22;7151;52.246;4.820;2023-08-01T06:40:49;20.60;90.70
14142;DHT22;7151;52.246;4.820;2023-08-01T06:43:14;20.60;90.70
14142;DHT22;7151;52.246;4.820;2023-08-01T06:45:40;20.60;90.80
14142;DHT22;7151;52.246;4.820;2023-08-01T06:48:05;20.60;90.90
14142;DHT22;7151;52.246;4.820;2023-08-01T06:50:31;20.60;90.90
14142;DHT22;7151;52.246;4.820;2023-08-01T06:52:56;20.70;90.90
14142;DHT22;7151;52.246;4.820;2023-08-01T06:55:22;20.70;90.80
14142;DHT22;7151;52.246;4.820;2023-08-01T06:57:48;20.70;90.70
14142;DHT22;7151;52.246;4.820;2023-08-01T07:00:13;20.70;90.70
14142;DHT22;7151;52.246;4.820;2023-08-01T07:02:39;20.70;90.70
14142;DHT22;7151;52.246;4.820;2023-08-01T07:05:05;20.70;90.60
14142;DHT22;7151;52.246;4.820;2023-08-01T07:07:31;20.70;90.60
14142;DHT22;7151;52.246;4.820;2023-08-01T07:09:56;20.60;90.50
14142;DHT22;7151;52.246;4.820;2023-08-01T07:12:22;20.60;90.60
14142;DHT22;7151;52.246;4.820;2023-08-01T07:14:47;20.60;90.60
14142;DHT22;7151;52.246;4.820;2023-08-01T07:17:13;20.50;90.70
14142;DHT22;7151;52.246;4.820;2023-08-01T07:19:38;20.50;90.80
14142;DHT22;7151;52.246;4.820;2023-08-01T07:22:04;20.50;90.90
14142;DHT22;7151;52.246;4.820;2023-08-01T07:24:30;20.50;91.10
14142;DHT22;7151;52.246;4.820;2023-08-01T07:26:55;20.50;91.20
14142;DHT22;7151;52.246;4.820;2023-08-01T07:29:21;20.50;91.30
14142;DHT22;7151;52.246;4.820;2023-08-01T07:31:46;20.50;91.30
14142;DHT22;7151;52.246;4.820;2023-08-01T07:34:12;20.60;91.40
14142;DHT22;7151;52.246;4.820;2023-08-01T07:36:37;20.60;91.40
14142;DHT22;7151;52.246;4.820;2023-08-01T07:39:03;20.60;91.30
14142;DHT22;7151;52.246;4.820;2023-08-01T07:41:29;20.60;91.30
14142;DHT22;7151;52.246;4.820;2023-08-01T07:43:55;20.60;91.30
14142;DHT22;7151;52.246;4.820;2023-08-01T07:46:20;20.60;91.30
14142;DHT22;7151;52.246;4.820;2023-08-01T07:48:46;20.60;91.30
14142;DHT22;7151;52.246;4.820;2023-08-01T07:51:11;20.60;91.30
14142;DHT22;7151;52.246;4.820;2023-08-01T07:53:37;20.60;91.40
14142;DHT22;7151;52.246;4.820;2023-08-01T07:56:03;20.60;91.40
14142;DHT22;7151;52.246;4.820;2023-08-01T07:58:29;20.60;91.30
14142;DHT22;7151;52.246;4.820;2023-08-01T08:00:55;20.60;91.20
14142;DHT22;7151;52.246;4.820;2023-08-01T08:03:21;20.60;91.20
14142;DHT22;7151;52.246;4.820;2023-08-01T08:05:49;20.60;91.20
14142;DHT22;7151;52.246;4.820;2023-08-01T08:08:15;20.60;91.20
14142;DHT22;7151;52.246;4.820;2023-08-01T08:10:42;20.60;91.20
14142;DHT22;7151;52.246;4.820;2023-08-01T08:13:08;20.60;91.20
14142;DHT22;7151;52.246;4.820;2023-08-01T08:15:33;20.70;91.30
14142;DHT22;7151;52.246;4.820;2023-08-01T08:18:00;20.70;91.30
14142;DHT22;7151;52.246;4.820;2023-08-01T08:20:30;20.80;91.40
14142;DHT22;7151;52.246;4.820;2023-08-01T08:22:57;20.80;91.40
14142;DHT22;7151;52.246;4.820;2023-08-01T08:25:22;20.80;91.30
14142;DHT22;7151;52.246;4.820;2023-08-01T08:27:52;20.90;91.20
14142;DHT22;7151;52.246;4.820;2023-08-01T08:30:18;20.90;91.10
14142;DHT22;7151;52.246;4.820;2023-08-01T08:32:45;20.90;91.10
14142;DHT22;7151;52.246;4.820;2023-08-01T08:35:11;21.00;91.10
14142;DHT22;7151;52.246;4.820;2023-08-01T08:37:38;21.00;90.90
14142;DHT22;7151;52.246;4.820;2023-08-01T08:40:04;21.00;90.80
14142;DHT22;7151;52.246;4.820;2023-08-01T08:42:33;21.00;90.70
14142;DHT22;7151;52.246;4.820;2023-08-01T08:45:01;21.00;90.70
14142;DHT22;7151;52.246;4.820;2023-08-01T08:47:31;21.00;90.70
14142;DHT22;7151;52.246;4.820;2023-08-01T08:50:01;21.00;90.70
14142;DHT22;7151;52.246;4.820;2023-08-01T08:52:27;21.00;90.60
14142;DHT22;7151;52.246;4.820;2023-08-01T08:54:53;21.00;90.50
14142;DHT22;7151;52.246;4.820;2023-08-01T08:57:20;21.10;90.50
14142;DHT22;7151;52.246;4.820;2023-08-01T08:59:47;21.10;90.50
14142;DHT22;7151;52.246;4.820;2023-08-01T09:02:15;21.10;90.50
14142;DHT22;7151;52.246;4.820;2023-08-01T09:04:41;21.10;90.40
14142;DHT22;7151;52.246;4.820;2023-08-01T09:07:09;21.20;90.30
14142;DHT22;7151;52.246;4.820;2023-08-01T09:09:35;21.20;90.30
14142;DHT22;7151;52.246;4.820;2023-08-01T09:12:02;21.20;90.40
14142;DHT22;7151;52.246;4.820;2023-08-01T09:14:28;21.20;90.40
14142;DHT22;7151;52.246;4.820;2023-08-01T09:16:54;21.30;90.30
14142;DHT22;7151;52.246;4.820;2023-08-01T09:19:24;21.30;90.20
14142;DHT22;7151;52.246;4.820;2023-08-01T09:21:51;21.30;90.10
14142;DHT22;7151;52.246;4.820;2023-08-01T09:24:20;21.30;90.00
14142;DHT22;7151;52.246;4.820;2023-08-01T09:26:48;21.40;90.00
14142;DHT22;7151;52.246;4.820;2023-08-01T09:29:17;21.40;90.00
14142;DHT22;7151;52.246;4.820;2023-08-01T09:31:43;21.40;89.80
14142;DHT22;7151;52.246;4.820;2023-08-01T09:34:20;21.50;89.90
14142;DHT22;7151;52.246;4.820;2023-08-01T09:36:46;21.50;90.00
14142;DHT22;7151;52.246;4.820;2023-08-01T09:39:16;21.50;90.00
14142;DHT22;7151;52.246;4.820;2023-08-01T09:41:42;21.60;89.80
14142;DHT22;7151;52.246;4.820;2023-08-01T09:44:16;21.60;89.60
14142;DHT22;7151;52.246;4.820;2023-08-01T09:46:42;21.60;89.30
14142;DHT22;7151;52.246;4.820;2023-08-01T09:49:10;21.60;89.30
14142;DHT22;7151;52.246;4.820;2023-08-01T09:51:49;21.70;89.50
14142;DHT22;7151;52.246;4.820;2023-08-01T09:54:16;21.70;89.60
14142;DHT22;7151;52.246;4.820;2023-08-01T09:56:44;21.70;89.50
14142;DHT22;7151;52.246;4.820;2023-08-01T09:59:10;21.80;89.10
14142;DHT22;7151;52.246;4.820;2023-08-01T10:01:38;21.80;88.90
14142;DHT22;7151;52.246;4.820;2023-08-01T10:04:05;21.80;88.80
14142;DHT22;7151;52.246;4.820;2023-08-01T10:06:34;21.80;88.80
14142;DHT22;7151;52.246;4.820;2023-08-01T10:09:02;21.90;88.60
14142;DHT22;7151;52.246;4.820;2023-08-01T10:11:30;21.90;88.30
14142;DHT22;7151;52.246;4.820;2023-08-01T10:13:56;21.90;88.00
14142;DHT22;7151;52.246;4.820;2023-08-01T10:16:22;21.90;87.60
14142;DHT22;7151;52.246;4.820;2023-08-01T10:18:48;21.90;87.60
14142;DHT22;7151;52.246;4.820;2023-08-01T10:21:16;21.90;87.50
14142;DHT22;7151;52.246;4.820;2023-08-01T10:23:44;21.90;87.00
14142;DHT22;7151;52.246;4.820;2023-08-01T10:26:11;21.90;86.90
14142;DHT22;7151;52.246;4.820;2023-08-01T10:28:38;21.90;87.10
14142;DHT22;7151;52.246;4.820;2023-08-01T10:31:22;21.90;87.20
14142;DHT22;7151;52.246;4.820;2023-08-01T10:33:49;22.00;87.20
14142;DHT22;7151;52.246;4.820;2023-08-01T10:36:22;22.00;87.40
14142;DHT22;7151;52.246;4.820;2023-08-01T10:38:53;22.00;87.50
14142;DHT22;7151;52.246;4.820;2023-08-01T10:41:30;22.10;87.40
14142;DHT22;7151;52.246;4.820;2023-08-01T10:44:08;22.10;87.20
14142;DHT22;7151;52.246;4.820;2023-08-01T10:46:56;22.10;86.80
14142;DHT22;7151;52.246;4.820;2023-08-01T10:52:16;22.20;87.00
14142;DHT22;7151;52.246;4.820;2023-08-01T10:54:43;22.30;86.80
14142;DHT22;7151;52.246;4.820;2023-08-01T10:57:09;22.20;86.70
14142;DHT22;7151;52.246;4.820;2023-08-01T10:59:40;22.30;86.80
14142;DHT22;7151;52.246;4.820;2023-08-01T11:02:07;22.30;86.60
14142;DHT22;7151;52.246;4.820;2023-08-01T11:04:33;22.30;86.40
14142;DHT22;7151;52.246;4.820;2023-08-01T11:06:58;22.40;86.40
14142;DHT22;7151;52.246;4.820;2023-08-01T11:09:26;22.50;86.50
14142;DHT22;7151;52.246;4.820;2023-08-01T11:11:54;22.50;86.20
14142;DHT22;7151;52.246;4.820;2023-08-01T11:14:21;22.60;85.60
14142;DHT22;7151;52.246;4.820;2023-08-01T11:16:48;22.60;85.30
14142;DHT22;7151;52.246;4.820;2023-08-01T11:19:24;22.60;85.10
14142;DHT22;7151;52.246;4.820;2023-08-01T11:21:50;22.60;84.70
14142;DHT22;7151;52.246;4.820;2023-08-01T11:24:18;22.70;84.70
14142;DHT22;7151;52.246;4.820;2023-08-01T11:26:45;22.70;84.90
14142;DHT22;7151;52.246;4.820;2023-08-01T11:29:11;22.70;84.50
14142;DHT22;7151;52.246;4.820;2023-08-01T11:31:37;22.80;84.60
14142;DHT22;7151;52.246;4.820;2023-08-01T11:34:03;22.80;84.60
14142;DHT22;7151;52.246;4.820;2023-08-01T11:36:30;22.90;84.30
14142;DHT22;7151;52.246;4.820;2023-08-01T11:38:59;22.90;84.10
14142;DHT22;7151;52.246;4.820;2023-08-01T11:41:29;23.00;84.00
14142;DHT22;7151;52.246;4.820;2023-08-01T11:43:55;23.00;83.60
14142;DHT22;7151;52.246;4.820;2023-08-01T11:46:31;23.00;83.40
14142;DHT22;7151;52.246;4.820;2023-08-01T11:48:58;23.10;83.50
14142;DHT22;7151;52.246;4.820;2023-08-01T11:51:24;23.20;84.10
14142;DHT22;7151;52.246;4.820;2023-08-01T11:54:03;23.20;83.90
14142;DHT22;7151;52.246;4.820;2023-08-01T11:56:32;23.30;83.30
14142;DHT22;7151;52.246;4.820;2023-08-01T11:58:58;23.30;83.20
14142;DHT22;7151;52.246;4.820;2023-08-01T12:01:24;23.40;82.90
14142;DHT22;7151;52.246;4.820;2023-08-01T12:03:52;23.40;82.50
14142;DHT22;7151;52.246;4.820;2023-08-01T12:06:19;23.40;82.00
14142;DHT22;7151;52.246;4.820;2023-08-01T12:08:47;23.40;81.70
14142;DHT22;7151;52.246;4.820;2023-08-01T12:11:23;23.40;81.50
14142;DHT22;7151;52.246;4.820;2023-08-01T12:16:30;23.50;81.50
14142;DHT22;7151;52.246;4.820;2023-08-01T12:18:57;23.60;81.50
14142;DHT22;7151;52.246;4.820;2023-08-01T12:21:22;23.60;81.10
14142;DHT22;7151;52.246;4.820;2023-08-01T12:23:48;23.60;80.60
14142;DHT22;7151;52.246;4.820;2023-08-01T12:26:14;23.60;80.00
14142;DHT22;7151;52.246;4.820;2023-08-01T12:28:39;23.60;79.40
14142;DHT22;7151;52.246;4.820;2023-08-01T12:31:05;23.50;79.50
14142;DHT22;7151;52.246;4.820;2023-08-01T12:33:32;23.40;79.80
14142;DHT22;7151;52.246;4.820;2023-08-01T12:35:58;23.30;80.70
14142;DHT22;7151;52.246;4.820;2023-08-01T12:38:23;23.20;80.10
14142;DHT22;7151;52.246;4.820;2023-08-01T12:40:49;23.10;80.30
14142;DHT22;7151;52.246;4.820;2023-08-01T12:43:15;23.00;80.60
14142;DHT22;7151;52.246;4.820;2023-08-01T12:45:42;22.90;80.90
14142;DHT22;7151;52.246;4.820;2023-08-01T12:48:07;22.90;81.40
14142;DHT22;7151;52.246;4.820;2023-08-01T12:50:33;22.90;81.80
14142;DHT22;7151;52.246;4.820;2023-08-01T12:52:58;22.90;82.30
14142;DHT22;7151;52.246;4.820;2023-08-01T12:55:24;22.90;82.90
14142;DHT22;7151;52.246;4.820;2023-08-01T12:57:50;22.90;83.20
14142;DHT22;7151;52.246;4.820;2023-08-01T13:00:16;23.00;83.30
14142;DHT22;7151;52.246;4.820;2023-08-01T13:02:41;23.10;83.30
14142;DHT22;7151;52.246;4.820;2023-08-01T13:05:07;23.20;83.20
14142;DHT22;7151;52.246;4.820;2023-08-01T13:07:32;23.30;83.20
14142;DHT22;7151;52.246;4.820;2023-08-01T13:10:02;23.30;82.90
14142;DHT22;7151;52.246;4.820;2023-08-01T13:12:28;23.40;82.40
14142;DHT22;7151;52.246;4.820;2023-08-01T13:14:53;23.40;81.90
14142;DHT22;7151;52.246;4.820;2023-08-01T13:17:19;23.50;81.50
14142;DHT22;7151;52.246;4.820;2023-08-01T13:19:44;23.50;80.80
14142;DHT22;7151;52.246;4.820;2023-08-01T13:22:10;23.50;80.30
14142;DHT22;7151;52.246;4.820;2023-08-01T13:24:35;23.40;80.20
14142;DHT22;7151;52.246;4.820;2023-08-01T13:27:01;23.40;80.60
14142;DHT22;7151;52.246;4.820;2023-08-01T13:29:27;23.40;80.90
14142;DHT22;7151;52.246;4.820;2023-08-01T13:31:53;23.30;81.00
14142;DHT22;7151;52.246;4.820;2023-08-01T13:34:19;23.30;81.30
14142;DHT22;7151;52.246;4.820;2023-08-01T13:36:44;23.20;81.70
14142;DHT22;7151;52.246;4.820;2023-08-01T13:39:10;23.10;82.10
14142;DHT22;7151;52.246;4.820;2023-08-01T13:41:35;23.10;82.30
14142;DHT22;7151;52.246;4.820;2023-08-01T13:44:01;23.10;82.20
14142;DHT22;7151;52.246;4.820;2023-08-01T13:46:27;23.00;82.10
14142;DHT22;7151;52.246;4.820;2023-08-01T13:48:53;23.00;82.20
14142;DHT22;7151;52.246;4.820;2023-08-01T13:51:18;23.00;82.20
14142;DHT22;7151;52.246;4.820;2023-08-01T13:53:44;23.00;82.20
14142;DHT22;7151;52.246;4.820;2023-08-01T13:56:10;23.00;82.30
14142;DHT22;7151;52.246;4.820;2023-08-01T13:58:40;23.00;82.40
14142;DHT22;7151;52.246;4.820;2023-08-01T14:01:07;22.90;82.30
14142;DHT22;7151;52.246;4.820;2023-08-01T14:03:34;22.90;82.10
14142;DHT22;7151;52.246;4.820;2023-08-01T14:06:09;22.90;82.10
14142;DHT22;7151;52.246;4.820;2023-08-01T14:08:36;22.90;82.10
14142;DHT22;7151;52.246;4.820;2023-08-01T14:11:06;22.90;82.20
14142;DHT22;7151;52.246;4.820;2023-08-01T14:13:33;22.80;82.30
14142;DHT22;7151;52.246;4.820;2023-08-01T14:16:00;22.70;82.30
14142;DHT22;7151;52.246;4.820;2023-08-01T14:18:30;22.70;82.30
14142;DHT22;7151;52.246;4.820;2023-08-01T14:20:55;22.60;82.30
14142;DHT22;7151;52.246;4.820;2023-08-01T14:23:21;22.50;82.30
14142;DHT22;7151;52.246;4.820;2023-08-01T14:25:47;22.40;82.30
14142;DHT22;7151;52.246;4.820;2023-08-01T14:28:13;22.40;82.50
14142;DHT22;7151;52.246;4.820;2023-08-01T14:30:39;22.30;82.70
14142;DHT22;7151;52.246;4.820;2023-08-01T14:33:08;22.20;83.00
14142;DHT22;7151;52.246;4.820;2023-08-01T14:35:37;22.20;83.50
14142;DHT22;7151;52.246;4.820;2023-08-01T14:38:03;22.10;83.70
14142;DHT22;7151;52.246;4.820;2023-08-01T14:40:29;22.10;83.90
14142;DHT22;7151;52.246;4.820;2023-08-01T14:42:55;22.10;84.20
14142;DHT22;7151;52.246;4.820;2023-08-01T14:45:21;22.10;84.50
14142;DHT22;7151;52.246;4.820;2023-08-01T14:47:47;22.10;84.80
14142;DHT22;7151;52.246;4.820;2023-08-01T14:50:14;22.00;85.20
14142;DHT22;7151;52.246;4.820;2023-08-01T14:52:40;22.00;85.40
14142;DHT22;7151;52.246;4.820;2023-08-01T14:55:07;22.10;85.60
14142;DHT22;7151;52.246;4.820;2023-08-01T14:57:32;22.10;85.80
14142;DHT22;7151;52.246;4.820;2023-08-01T14:59:58;22.10;86.10
14142;DHT22;7151;52.246;4.820;2023-08-01T15:02:24;22.10;86.30
14142;DHT22;7151;52.246;4.820;2023-08-01T15:04:54;22.20;86.70
14142;DHT22;7151;52.246;4.820;2023-08-01T15:07:24;22.20;87.10
14142;DHT22;7151;52.246;4.820;2023-08-01T15:09:51;22.30;87.50
14142;DHT22;7151;52.246;4.820;2023-08-01T15:12:18;22.40;88.20
14142;DHT22;7151;52.246;4.820;2023-08-01T15:14:49;22.50;88.50
14142;DHT22;7151;52.246;4.820;2023-08-01T15:17:15;22.60;88.20
14142;DHT22;7151;52.246;4.820;2023-08-01T15:19:41;22.70;87.90
14142;DHT22;7151;52.246;4.820;2023-08-01T15:22:06;22.80;87.50
14142;DHT22;7151;52.246;4.820;2023-08-01T15:24:32;22.90;86.80
14142;DHT22;7151;52.246;4.820;2023-08-01T15:26:58;22.90;86.30
14142;DHT22;7151;52.246;4.820;2023-08-01T15:29:23;22.90;85.90
14142;DHT22;7151;52.246;4.820;2023-08-01T15:31:49;22.90;85.30
14142;DHT22;7151;52.246;4.820;2023-08-01T15:34:14;23.00;85.00
14142;DHT22;7151;52.246;4.820;2023-08-01T15:36:40;22.90;84.80
14142;DHT22;7151;52.246;4.820;2023-08-01T15:39:06;22.90;84.80
14142;DHT22;7151;52.246;4.820;2023-08-01T15:41:31;22.90;84.40
14142;DHT22;7151;52.246;4.820;2023-08-01T15:43:57;22.90;84.40
14142;DHT22;7151;52.246;4.820;2023-08-01T15:46:22;22.90;84.70